createdAt,value
2023-05-23T00:01:17.268Z,17.61
2023-05-23T00:03:45.825Z,17.56
2023-05-23T00:06:15.568Z,17.61
2023-05-23T00:08:43.708Z,17.36
2023-05-23T00:11:13.499Z,17.44
2023-05-23T00:13:43.500Z,17.25
2023-05-23T00:16:11.689Z,17.29
2023-05-23T00:18:43.255Z,17.30
2023-05-23T00:21:11.469Z,17.32
2023-05-23T00:23:42.466Z,17.33
2023-05-23T00:26:10.798Z,17.33
2023-05-23T00:28:39.142Z,17.32
2023-05-23T00:31:07.556Z,17.31
2023-05-23T00:33:36.445Z,17.31
2023-05-23T00:36:04.805Z,17.34
2023-05-23T00:38:33.294Z,17.33
2023-05-23T00:41:03.506Z,17.24
2023-05-23T00:43:31.800Z,17.26
2023-05-23T00:46:00.841Z,17.16
2023-05-23T00:48:29.897Z,17.03
2023-05-23T00:50:58.966Z,17.02
2023-05-23T00:53:27.705Z,16.94
2023-05-23T00:55:56.044Z,16.97
2023-05-23T00:58:26.440Z,16.70
2023-05-23T01:00:55.863Z,16.50
2023-05-23T01:03:28.847Z,16.93
2023-05-23T01:05:57.399Z,16.95
2023-05-23T01:08:25.626Z,16.77
2023-05-23T01:10:54.211Z,16.84
2023-05-23T01:13:30.918Z,16.79
2023-05-23T01:16:04.687Z,16.78
2023-05-23T01:18:38.545Z,16.75
2023-05-23T01:21:10.839Z,16.27
2023-05-23T01:24:05.352Z,16.71
2023-05-23T01:26:42.578Z,16.70
2023-05-23T01:29:16.474Z,16.79
2023-05-23T01:31:46.792Z,16.81
2023-05-23T01:34:17.245Z,16.72
2023-05-23T01:36:46.851Z,16.59
2023-05-23T01:39:14.987Z,16.44
2023-05-23T01:41:43.233Z,16.52
2023-05-23T01:44:13.019Z,16.45
2023-05-23T01:46:42.345Z,16.44
2023-05-23T01:49:13.590Z,16.43
2023-05-23T01:51:42.733Z,16.48
2023-05-23T01:54:11.264Z,16.45
2023-05-23T01:56:39.732Z,16.40
2023-05-23T01:59:08.277Z,16.41
2023-05-23T02:01:38.838Z,16.37
2023-05-23T02:04:07.146Z,16.32
2023-05-23T02:06:35.371Z,16.38
2023-05-23T02:09:04.229Z,16.02
2023-05-23T02:11:32.539Z,16.27
2023-05-23T02:14:01.261Z,16.19
2023-05-23T02:16:29.490Z,16.07
2023-05-23T02:18:59.612Z,16.19
2023-05-23T02:21:27.743Z,16.12
2023-05-23T02:23:56.058Z,15.70
2023-05-23T02:26:24.838Z,16.08
2023-05-23T02:28:53.021Z,16.05
2023-05-23T02:31:21.686Z,16.05
2023-05-23T02:33:50.034Z,16.07
2023-05-23T02:36:19.677Z,16.09
2023-05-23T02:38:47.943Z,16.05
2023-05-23T02:41:16.308Z,16.12
2023-05-23T02:43:47.507Z,15.95
2023-05-23T02:46:15.832Z,16.02
2023-05-23T02:48:44.108Z,15.98
2023-05-23T02:51:13.794Z,15.91
2023-05-23T02:53:43.352Z,15.95
2023-05-23T02:56:11.948Z,15.90
2023-05-23T02:58:40.347Z,15.93
2023-05-23T03:01:09.788Z,15.97
2023-05-23T03:03:38.168Z,15.64
2023-05-23T03:06:06.507Z,16.03
2023-05-23T03:08:34.885Z,15.39
2023-05-23T03:11:04.533Z,15.98
2023-05-23T03:13:32.992Z,15.77
2023-05-23T03:16:01.558Z,15.50
2023-05-23T03:18:29.870Z,15.66
2023-05-23T03:20:58.411Z,15.59
2023-05-23T03:23:26.671Z,15.66
2023-05-23T03:25:55.060Z,15.64
2023-05-23T03:28:24.775Z,15.69
2023-05-23T03:30:53.083Z,15.54
2023-05-23T03:33:21.467Z,15.61
2023-05-23T03:35:49.706Z,15.64
2023-05-23T03:38:18.163Z,15.65
2023-05-23T03:40:46.628Z,15.71
2023-05-23T03:43:15.351Z,15.71
2023-05-23T03:45:45.367Z,15.72
2023-05-23T03:48:13.817Z,15.77
2023-05-23T03:50:42.080Z,15.77
2023-05-23T03:53:10.489Z,15.75
2023-05-23T03:55:38.992Z,15.73
2023-05-23T03:58:07.799Z,15.79
2023-05-23T04:00:36.067Z,15.83
2023-05-23T04:03:06.068Z,15.87
2023-05-23T04:05:34.358Z,16.08
2023-05-23T04:08:02.980Z,16.11
2023-05-23T04:10:31.539Z,16.19
2023-05-23T04:12:59.921Z,16.22
2023-05-23T04:15:28.301Z,16.31
2023-05-23T04:17:56.712Z,16.40
2023-05-23T04:20:26.547Z,16.58
2023-05-23T04:22:54.820Z,16.63
2023-05-23T04:25:23.011Z,16.86
2023-05-23T04:27:51.270Z,16.99
2023-05-23T04:30:19.520Z,17.15
2023-05-23T04:32:48.501Z,17.18
2023-05-23T04:35:16.908Z,16.97
2023-05-23T04:37:47.284Z,17.36
2023-05-23T04:40:16.410Z,17.45
2023-05-23T04:42:44.779Z,17.56
2023-05-23T04:45:13.325Z,17.65
2023-05-23T04:47:42.232Z,17.77
2023-05-23T04:50:11.300Z,17.92
2023-05-23T04:52:39.591Z,18.00
2023-05-23T04:55:10.052Z,18.07
2023-05-23T04:57:38.521Z,18.29
2023-05-23T05:00:10.929Z,18.40
2023-05-23T05:02:41.092Z,18.50
2023-05-23T05:05:10.002Z,18.62
2023-05-23T05:07:38.201Z,18.82
2023-05-23T05:10:09.545Z,18.94
2023-05-23T05:12:37.748Z,18.96
2023-05-23T05:15:06.977Z,18.95
2023-05-23T05:17:37.217Z,18.85
2023-05-23T05:20:08.959Z,18.84
2023-05-23T05:22:40.375Z,18.85
2023-05-23T05:25:11.959Z,18.63
2023-05-23T05:27:41.308Z,18.75
2023-05-23T05:30:11.379Z,19.03
2023-05-23T05:32:39.744Z,19.08
2023-05-23T05:35:09.171Z,19.18
2023-05-23T05:37:37.388Z,19.23
2023-05-23T05:40:09.129Z,19.20
2023-05-23T05:42:38.712Z,19.56
2023-05-23T05:45:08.138Z,19.72
2023-05-23T05:47:37.243Z,20.02
2023-05-23T05:50:06.263Z,20.14
2023-05-23T05:52:34.979Z,20.18
2023-05-23T05:55:03.168Z,20.18
2023-05-23T05:57:31.370Z,20.27
2023-05-23T06:00:01.136Z,20.36
2023-05-23T06:02:29.395Z,20.48
2023-05-23T06:04:57.667Z,20.58
2023-05-23T06:07:26.253Z,20.60
2023-05-23T06:09:54.435Z,20.69
2023-05-23T06:12:22.568Z,20.88
2023-05-23T06:14:50.635Z,21.11
2023-05-23T06:17:20.684Z,21.30
2023-05-23T06:19:48.881Z,21.55
2023-05-23T06:22:17.318Z,21.72
2023-05-23T06:24:45.538Z,21.79
2023-05-23T06:27:13.793Z,21.81
2023-05-23T06:29:41.961Z,21.90
2023-05-23T06:32:10.191Z,22.06
2023-05-23T06:34:39.970Z,22.24
2023-05-23T06:37:08.205Z,22.39
2023-05-23T06:39:36.557Z,22.51
2023-05-23T06:42:04.936Z,22.72
2023-05-23T06:44:33.136Z,22.85
2023-05-23T06:47:01.351Z,22.96
2023-05-23T06:49:29.644Z,23.06
2023-05-23T06:51:59.324Z,23.32
2023-05-23T06:54:27.510Z,23.30
2023-05-23T06:56:55.805Z,23.55
2023-05-23T06:59:23.958Z,23.50
2023-05-23T07:01:52.228Z,23.45
2023-05-23T07:04:20.417Z,23.29
2023-05-23T07:06:49.147Z,23.30
2023-05-23T07:09:18.747Z,23.36
2023-05-23T07:11:46.962Z,23.39
2023-05-23T07:14:15.215Z,23.55
2023-05-23T07:16:43.512Z,23.71
2023-05-23T07:19:11.808Z,23.83
2023-05-23T07:21:40.058Z,23.79
2023-05-23T07:24:08.350Z,23.59
2023-05-23T07:26:37.908Z,23.45
2023-05-23T07:29:06.196Z,23.55
2023-05-23T07:31:34.546Z,23.66
2023-05-23T07:34:02.827Z,23.85
2023-05-23T07:36:34.856Z,23.93
2023-05-23T07:39:03.413Z,23.97
2023-05-23T07:41:31.587Z,24.02
2023-05-23T07:44:01.281Z,24.12
2023-05-23T07:46:29.506Z,24.32
2023-05-23T07:48:57.647Z,24.02
2023-05-23T07:51:25.876Z,24.39
2023-05-23T07:53:54.108Z,24.50
2023-05-23T07:56:22.294Z,24.65
2023-05-23T07:58:50.427Z,24.85
2023-05-23T08:01:20.447Z,24.89
2023-05-23T08:03:48.650Z,24.96
2023-05-23T08:06:16.928Z,25.08
2023-05-23T08:08:45.139Z,25.08
2023-05-23T08:11:13.367Z,24.94
2023-05-23T08:13:41.567Z,24.92
2023-05-23T08:16:09.909Z,24.96
2023-05-23T08:18:39.788Z,24.97
2023-05-23T08:21:08.045Z,25.16
2023-05-23T08:23:36.258Z,25.27
2023-05-23T08:26:04.565Z,25.43
2023-05-23T08:28:34.836Z,25.24
2023-05-23T08:31:03.162Z,25.14
2023-05-23T08:33:31.368Z,25.08
2023-05-23T08:36:01.060Z,25.26
2023-05-23T08:38:29.233Z,25.44
2023-05-23T08:40:59.208Z,25.34
2023-05-23T08:43:27.434Z,25.51
2023-05-23T08:45:55.811Z,25.03
2023-05-23T08:48:25.394Z,25.55
2023-05-23T08:50:54.693Z,25.44
2023-05-23T08:53:28.519Z,25.52
2023-05-23T08:55:59.323Z,25.50
2023-05-23T08:58:29.528Z,25.59
2023-05-23T09:00:57.712Z,25.74
2023-05-23T09:03:27.702Z,25.96
2023-05-23T09:05:56.804Z,26.16
2023-05-23T09:08:26.499Z,26.18
2023-05-23T09:10:56.099Z,26.48
2023-05-23T09:13:24.413Z,26.65
2023-05-23T09:16:02.722Z,26.83
2023-05-23T09:18:36.306Z,26.95
2023-05-23T09:21:04.670Z,27.10
2023-05-23T09:23:35.150Z,27.14
2023-05-23T09:26:05.104Z,27.15
2023-05-23T09:28:34.572Z,27.18
2023-05-23T09:31:03.581Z,26.76
2023-05-23T09:33:38.226Z,27.17
2023-05-23T09:36:07.591Z,27.14
2023-05-23T09:38:41.331Z,27.22
2023-05-23T09:41:12.371Z,27.31
2023-05-23T09:43:41.216Z,27.32
2023-05-23T09:46:11.413Z,27.42
2023-05-23T09:48:40.138Z,27.63
2023-05-23T09:51:10.377Z,27.57
2023-05-23T09:53:38.733Z,27.48
2023-05-23T09:56:11.694Z,27.88
2023-05-23T09:58:40.588Z,27.65
2023-05-23T10:01:11.856Z,27.56
2023-05-23T10:03:47.685Z,27.60
2023-05-23T10:06:22.833Z,27.41
2023-05-23T10:08:56.842Z,27.58
2023-05-23T10:12:21.581Z,27.59
2023-05-23T10:14:54.045Z,27.84
2023-05-23T10:17:34.249Z,28.10
2023-05-23T10:20:08.644Z,28.25
2023-05-23T10:22:37.796Z,27.98
2023-05-23T10:25:07.198Z,27.52
2023-05-23T10:27:37.036Z,27.51
2023-05-23T10:30:06.727Z,27.43
2023-05-23T10:32:36.000Z,27.87
2023-05-23T10:35:13.421Z,27.76
2023-05-23T10:37:49.889Z,28.10
2023-05-23T10:40:25.794Z,28.21
2023-05-23T10:43:03.155Z,28.26
2023-05-23T10:45:31.715Z,28.33
2023-05-23T10:48:01.807Z,28.22
2023-05-23T10:50:34.508Z,28.11
2023-05-23T10:53:03.659Z,27.93
2023-05-23T10:55:33.809Z,27.74
2023-05-23T10:58:14.317Z,27.43
2023-05-23T11:00:52.597Z,27.07
2023-05-23T11:03:21.135Z,26.71
2023-05-23T11:05:49.713Z,26.57
2023-05-23T11:08:18.237Z,26.44
2023-05-23T11:10:57.197Z,26.44
2023-05-23T11:13:27.121Z,26.09
2023-05-23T11:15:55.313Z,25.81
2023-05-23T11:18:29.191Z,25.23
2023-05-23T11:20:59.977Z,24.82
2023-05-23T11:23:42.286Z,24.65
2023-05-23T11:26:31.595Z,24.68
2023-05-23T11:29:03.290Z,24.85
2023-05-23T11:31:31.690Z,25.02
2023-05-23T11:33:59.949Z,25.13
2023-05-23T11:36:29.505Z,25.23
2023-05-23T11:38:57.993Z,25.19
2023-05-23T11:41:26.527Z,25.35
2023-05-23T11:43:55.372Z,25.55
2023-05-23T11:46:25.016Z,25.69
2023-05-23T11:48:54.901Z,25.66
2023-05-23T11:51:23.635Z,25.64
2023-05-23T11:53:51.873Z,25.54
2023-05-23T11:56:20.132Z,24.80
2023-05-23T11:58:48.406Z,24.00
2023-05-23T12:01:16.910Z,22.66
2023-05-23T12:03:51.446Z,22.03
2023-05-23T12:06:20.405Z,21.47
2023-05-23T12:08:48.861Z,20.94
2023-05-23T12:11:17.571Z,20.62
2023-05-23T12:13:47.075Z,19.97
2023-05-23T12:16:16.112Z,18.99
2023-05-23T12:18:44.700Z,17.75
2023-05-23T12:21:14.911Z,17.39
2023-05-23T12:23:43.618Z,17.61
2023-05-23T12:26:11.786Z,17.61
2023-05-23T12:28:41.259Z,17.27
2023-05-23T12:31:13.772Z,17.16
2023-05-23T12:33:44.151Z,17.30
2023-05-23T12:36:12.729Z,17.39
2023-05-23T12:38:45.679Z,17.37
2023-05-23T12:41:17.176Z,17.15
2023-05-23T12:43:51.923Z,17.18
2023-05-23T12:46:20.656Z,17.16
2023-05-23T12:48:48.941Z,17.04
2023-05-23T12:51:17.420Z,17.20
2023-05-23T12:53:47.201Z,17.32
2023-05-23T12:56:15.424Z,17.38
2023-05-23T12:58:43.727Z,17.57
2023-05-23T13:01:12.413Z,17.78
2023-05-23T13:03:40.844Z,17.86
2023-05-23T13:06:09.435Z,17.96
2023-05-23T13:08:37.637Z,17.87
2023-05-23T13:11:07.749Z,17.63
2023-05-23T13:13:35.907Z,17.57
2023-05-23T13:16:04.140Z,17.43
2023-05-23T13:18:32.502Z,17.49
2023-05-23T13:21:00.676Z,17.63
2023-05-23T13:23:28.936Z,17.76
2023-05-23T13:25:58.184Z,17.88
2023-05-23T13:28:27.738Z,17.89
2023-05-23T13:30:55.981Z,17.92
2023-05-23T13:33:24.357Z,17.99
2023-05-23T13:35:53.174Z,18.08
2023-05-23T13:38:23.396Z,17.93
2023-05-23T13:40:53.562Z,18.00
2023-05-23T13:43:21.734Z,18.19
2023-05-23T13:45:51.339Z,18.27
2023-05-23T13:48:19.502Z,18.38
2023-05-23T13:50:47.985Z,18.37
2023-05-23T13:53:17.140Z,18.38
2023-05-23T13:55:46.715Z,18.38
2023-05-23T13:58:14.962Z,18.58
2023-05-23T14:00:43.610Z,18.72
2023-05-23T14:03:13.531Z,18.88
2023-05-23T14:05:41.877Z,18.73
2023-05-23T14:08:11.422Z,18.63
2023-05-23T14:10:39.810Z,18.57
2023-05-23T14:13:08.580Z,18.66
2023-05-23T14:15:38.625Z,18.56
2023-05-23T14:18:07.098Z,18.56
2023-05-23T14:20:36.697Z,18.49
2023-05-23T14:23:05.035Z,18.55
2023-05-23T14:25:33.312Z,18.72
2023-05-23T14:28:01.459Z,18.81
2023-05-23T14:30:29.655Z,18.44
2023-05-23T14:32:57.893Z,18.75
2023-05-23T14:35:26.409Z,18.75
2023-05-23T14:37:55.982Z,18.74
2023-05-23T14:40:24.241Z,18.96
2023-05-23T14:42:52.536Z,19.14
2023-05-23T14:45:21.108Z,19.34
2023-05-23T14:47:49.371Z,19.56
2023-05-23T14:50:17.878Z,19.63
2023-05-23T14:52:46.182Z,19.83
2023-05-23T14:55:15.766Z,19.91
2023-05-23T14:57:44.173Z,19.87
2023-05-23T15:00:13.454Z,19.76
2023-05-23T15:02:41.700Z,19.73
2023-05-23T15:05:10.596Z,19.68
2023-05-23T15:07:38.913Z,19.67
2023-05-23T15:10:08.699Z,19.76
2023-05-23T15:12:38.439Z,19.78
2023-05-23T15:15:07.437Z,19.65
2023-05-23T15:17:35.804Z,19.52
2023-05-23T15:20:06.954Z,19.21
2023-05-23T15:22:39.470Z,19.16
2023-05-23T15:25:09.337Z,19.19
2023-05-23T15:27:39.047Z,19.07
2023-05-23T15:30:08.659Z,18.99
2023-05-23T15:32:37.000Z,18.89
2023-05-23T15:35:05.921Z,18.81
2023-05-23T15:37:34.081Z,18.90
2023-05-23T15:40:02.709Z,18.79
2023-05-23T15:42:31.059Z,19.00
2023-05-23T15:45:00.575Z,19.00
2023-05-23T15:47:28.814Z,18.97
2023-05-23T15:49:57.063Z,18.85
2023-05-23T15:52:25.347Z,18.75
2023-05-23T15:54:53.445Z,18.72
2023-05-23T15:57:21.670Z,18.54
2023-05-23T15:59:49.821Z,18.36
2023-05-23T16:02:20.376Z,18.24
2023-05-23T16:04:48.647Z,18.20
2023-05-23T16:07:18.361Z,18.19
2023-05-23T16:09:46.826Z,18.27
2023-05-23T16:12:15.003Z,18.41
2023-05-23T16:14:43.354Z,18.40
2023-05-23T16:17:11.518Z,18.42
2023-05-23T16:19:41.233Z,18.41
2023-05-23T16:22:09.421Z,18.46
2023-05-23T16:24:37.657Z,18.39
2023-05-23T16:27:06.293Z,18.52
2023-05-23T16:29:34.498Z,18.55
2023-05-23T16:32:02.638Z,18.53
2023-05-23T16:34:30.840Z,18.44
2023-05-23T16:37:00.700Z,18.32
2023-05-23T16:39:28.968Z,18.34
2023-05-23T16:41:59.498Z,18.33
2023-05-23T16:44:28.791Z,18.58
2023-05-23T16:46:57.092Z,18.90
2023-05-23T16:49:25.331Z,19.61
2023-05-23T16:51:53.639Z,20.80
2023-05-23T16:54:23.234Z,21.79
2023-05-23T16:56:51.442Z,22.71
2023-05-23T16:59:19.631Z,23.34
2023-05-23T17:01:47.991Z,23.24
2023-05-23T17:04:17.667Z,23.51
2023-05-23T17:06:47.954Z,22.79
2023-05-23T17:09:18.037Z,22.46
2023-05-23T17:11:47.678Z,22.25
2023-05-23T17:14:16.325Z,21.98
2023-05-23T17:16:44.502Z,21.76
2023-05-23T17:19:13.435Z,21.41
2023-05-23T17:21:41.637Z,20.39
2023-05-23T17:24:09.848Z,20.44
2023-05-23T17:26:38.086Z,20.00
2023-05-23T17:29:07.870Z,19.92
2023-05-23T17:31:36.301Z,19.88
2023-05-23T17:34:04.625Z,19.72
2023-05-23T17:36:34.299Z,19.58
2023-05-23T17:39:02.501Z,19.47
2023-05-23T17:41:30.687Z,19.30
2023-05-23T17:43:58.869Z,19.27
2023-05-23T17:46:28.793Z,19.21
2023-05-23T17:48:56.958Z,19.06
2023-05-23T17:51:25.135Z,18.83
2023-05-23T17:53:53.983Z,18.75
2023-05-23T17:56:23.507Z,18.73
2023-05-23T17:58:52.797Z,18.61
2023-05-23T18:01:21.110Z,18.46
2023-05-23T18:03:50.835Z,18.31
2023-05-23T18:06:19.102Z,18.13
2023-05-23T18:08:47.261Z,18.12
2023-05-23T18:11:15.604Z,18.06
2023-05-23T18:13:44.142Z,18.09
2023-05-23T18:16:12.417Z,18.05
2023-05-23T18:18:41.337Z,18.14
2023-05-23T18:21:11.340Z,18.14
2023-05-23T18:23:39.544Z,18.03
2023-05-23T18:26:07.743Z,18.22
2023-05-23T18:28:36.072Z,18.15
2023-05-23T18:31:04.626Z,18.10
2023-05-23T18:33:32.810Z,18.11
2023-05-23T18:36:01.698Z,18.11
2023-05-23T18:38:31.465Z,18.02
2023-05-23T18:40:59.740Z,18.12
2023-05-23T18:43:27.925Z,18.03
2023-05-23T18:45:56.381Z,18.04
2023-05-23T18:48:24.722Z,18.05
2023-05-23T18:50:53.121Z,18.02
2023-05-23T18:53:21.302Z,17.93
2023-05-23T18:55:51.176Z,17.90
2023-05-23T18:58:19.835Z,17.93
2023-05-23T19:00:48.134Z,17.95
2023-05-23T19:03:17.930Z,17.89
2023-05-23T19:05:46.484Z,17.81
2023-05-23T19:08:14.638Z,17.84
2023-05-23T19:10:43.113Z,17.91
2023-05-23T19:13:13.924Z,17.85
2023-05-23T19:15:42.122Z,17.83
2023-05-23T19:18:10.499Z,17.88
2023-05-23T19:20:38.906Z,17.93
2023-05-23T19:23:08.174Z,17.90
2023-05-23T19:25:36.554Z,17.85
2023-05-23T19:28:04.875Z,17.89
2023-05-23T19:30:34.577Z,17.88
2023-05-23T19:33:02.842Z,17.83
2023-05-23T19:35:31.235Z,17.78
2023-05-23T19:37:59.446Z,17.79
2023-05-23T19:40:27.704Z,17.31
2023-05-23T19:42:55.994Z,17.74
2023-05-23T19:45:24.412Z,17.67
2023-05-23T19:47:54.190Z,17.68
2023-05-23T19:50:22.765Z,17.57
2023-05-23T19:52:51.520Z,17.53
2023-05-23T19:55:19.693Z,17.54
2023-05-23T19:57:48.012Z,17.38
2023-05-23T20:00:16.657Z,17.47
2023-05-23T20:02:45.349Z,17.50
2023-05-23T20:05:15.037Z,17.48
2023-05-23T20:07:43.452Z,17.46
2023-05-23T20:10:12.244Z,17.48
2023-05-23T20:12:40.471Z,17.49
2023-05-23T20:15:09.829Z,17.52
2023-05-23T20:17:38.218Z,17.56
2023-05-23T20:20:07.728Z,17.57
2023-05-23T20:22:37.375Z,17.65
2023-05-23T20:25:06.616Z,17.68
2023-05-23T20:27:35.001Z,17.47
2023-05-23T20:30:03.292Z,17.65
2023-05-23T20:32:31.667Z,17.57
2023-05-23T20:34:59.867Z,17.61
2023-05-23T20:37:28.576Z,17.53
2023-05-23T20:39:58.216Z,17.41
2023-05-23T20:42:26.826Z,17.43
2023-05-23T20:44:57.126Z,17.41
2023-05-23T20:47:25.812Z,17.45
2023-05-23T20:49:54.107Z,17.55
2023-05-23T20:52:23.111Z,17.55
2023-05-23T20:54:52.639Z,17.59
2023-05-23T20:57:23.197Z,17.56
2023-05-23T20:59:51.394Z,17.49
2023-05-23T21:02:19.570Z,17.48
2023-05-23T21:04:47.883Z,17.46
2023-05-23T21:07:16.328Z,17.41
2023-05-23T21:09:44.551Z,16.06
2023-05-23T21:12:12.886Z,17.44
2023-05-23T21:14:42.442Z,17.49
2023-05-23T21:17:10.895Z,17.38
2023-05-23T21:19:39.155Z,17.49
2023-05-23T21:22:07.404Z,17.47
2023-05-23T21:24:35.670Z,17.48
2023-05-23T21:27:03.954Z,17.38
2023-05-23T21:29:32.343Z,17.49
2023-05-23T21:32:02.194Z,17.49
2023-05-23T21:34:30.388Z,17.46
2023-05-23T21:36:58.506Z,17.56
2023-05-23T21:39:36.097Z,17.63
2023-05-23T21:42:08.573Z,17.50
2023-05-23T21:44:38.251Z,17.58
2023-05-23T21:47:09.937Z,17.58
2023-05-23T21:49:38.164Z,17.30
2023-05-23T21:52:06.680Z,17.57
2023-05-23T21:54:35.124Z,17.46
2023-05-23T21:57:03.433Z,17.47
2023-05-23T21:59:31.654Z,17.48
2023-05-23T22:02:00.024Z,17.47
2023-05-23T22:04:29.724Z,17.43
2023-05-23T22:06:58.767Z,17.34
2023-05-23T22:09:27.076Z,17.23
2023-05-23T22:11:55.486Z,17.20
2023-05-23T22:14:23.657Z,17.11
2023-05-23T22:16:52.203Z,17.06
2023-05-23T22:19:21.196Z,16.73
2023-05-23T22:21:51.024Z,16.97
2023-05-23T22:24:19.290Z,17.05
2023-05-23T22:26:47.516Z,17.21
2023-05-23T22:29:15.997Z,17.21
2023-05-23T22:31:44.271Z,16.51
2023-05-23T22:34:12.489Z,16.72
2023-05-23T22:36:40.619Z,16.94
2023-05-23T22:39:10.299Z,16.99
2023-05-23T22:41:38.506Z,17.01
2023-05-23T22:44:06.684Z,16.99
2023-05-23T22:46:34.933Z,16.90
2023-05-23T22:49:03.894Z,16.80
2023-05-23T22:51:34.280Z,16.85
2023-05-23T22:54:02.912Z,16.95
2023-05-23T22:56:32.580Z,16.89
2023-05-23T22:59:00.771Z,16.90
2023-05-23T23:01:29.151Z,16.82
2023-05-23T23:03:57.358Z,16.92
2023-05-23T23:06:25.595Z,16.82
2023-05-23T23:08:54.490Z,16.86
2023-05-23T23:11:22.705Z,16.82
2023-05-23T23:13:52.432Z,16.25
2023-05-23T23:16:21.317Z,16.74
2023-05-23T23:18:49.513Z,16.78
2023-05-23T23:21:17.850Z,16.77
2023-05-23T23:23:46.081Z,16.75
2023-05-23T23:26:14.208Z,16.66
2023-05-23T23:28:42.450Z,16.64
2023-05-23T23:31:12.175Z,16.66
2023-05-23T23:33:40.427Z,16.65
2023-05-23T23:36:09.009Z,16.68
2023-05-23T23:38:38.278Z,16.76
2023-05-23T23:41:06.654Z,16.69
2023-05-23T23:43:34.889Z,16.68
2023-05-23T23:46:03.048Z,16.55
2023-05-23T23:48:32.656Z,16.68
2023-05-23T23:51:00.905Z,16.65
2023-05-23T23:53:30.322Z,16.46
2023-05-23T23:55:58.432Z,16.51
2023-05-23T23:58:26.641Z,16.64
